This is the latest recevied weather packets stored in our database for station/object N4DWK. If no packets are shown the sender has not sent any weather packets the latest 10 day(s).
| Time | Temp. | Humidity | Pressure | Rain* | Wind** | Luminosity | Snow |
|---|---|---|---|---|---|---|---|
| 1777505106 | 18.89° C | 84% | 1007.8 hPa | 0 mm | - | 0 W/m² | - |
| 1777504807 | 18.89° C | 84% | 1007.6 hPa | 0 mm | - | 0 W/m² | - |
| 1777504505 | 18.89° C | 84% | 1007.6 hPa | 0 mm | - | 5 W/m² | - |
| 1777504206 | 18.89° C | 84% | 1007.6 hPa | 0 mm | - | 5 W/m² | - |
| 1777503906 | 18.89° C | 83% | 1007.6 hPa | 0 mm | - | 5 W/m² | - |
| 1777503606 | 18.89° C | 83% | 1007.6 hPa | 0 mm | - | 9 W/m² | - |
| 1777503306 | 18.89° C | 83% | 1007.7 hPa | 0 mm | - | 11 W/m² | - |
| 1777503006 | 19.44° C | 83% | 1007.8 hPa | 0 mm | - | 11 W/m² | - |
| 1777502707 | 19.44° C | 83% | 1007.7 hPa | 0 mm | - | 14 W/m² | - |
| 1777502406 | 19.44° C | 82% | 1007.7 hPa | 0 mm | - | 16 W/m² | - |
| 1777502105 | 19.44° C | 82% | 1007.7 hPa | 0 mm | - | 14 W/m² | - |
| 1777501806 | 19.44° C | 82% | 1007.5 hPa | 0 mm | - | 23 W/m² | - |
| 1777501506 | 19.44° C | 82% | 1007.5 hPa | 0 mm | - | 25 W/m² | - |
| 1777501206 | 19.44° C | 81% | 1007.6 hPa | 0 mm | - | 28 W/m² | - |
| 1777500905 | 19.44° C | 81% | 1007.8 hPa | 0 mm | - | 18 W/m² | - |
| 1777500605 | 19.44° C | 81% | 1007.9 hPa | 0 mm | - | 19 W/m² | - |
| 1777500307 | 19.44° C | 81% | 1008 hPa | 0 mm | - | 19 W/m² | - |
| 1777500006 | 19.44° C | 81% | 1007.9 hPa | 0 mm | - | 19 W/m² | - |
| 1777499706 | 19.44° C | 81% | 1008 hPa | 0 mm | - | 23 W/m² | - |
| 1777499406 | 19.44° C | 81% | 1008 hPa | 0 mm | - | 28 W/m² | - |
| 1777499106 | 19.44° C | 80% | 1008.1 hPa | 0 mm | - | 19 W/m² | - |
| 1777498805 | 19.44° C | 80% | 1008.2 hPa | 0 mm | - | 14 W/m² | - |
| 1777498505 | 19.44° C | 80% | 1008.1 hPa | 0 mm | - | 21 W/m² | - |
| 1777498206 | 19.44° C | 81% | 1008.2 hPa | 0 mm | - | 21 W/m² | - |
| 1777497905 | 19.44° C | 80% | 1008.2 hPa | 0 mm | - | 32 W/m² | - |
* Rain latest hour (hover to see other rain measurements)
** Current wind speed in m/s (hover to see current wind gust speed)